createdAt,value
2017-04-03T00:00:42.356Z,55.6
2017-04-03T00:01:44.180Z,55.5
2017-04-03T00:02:45.999Z,55.5
2017-04-03T00:03:47.800Z,55.6
2017-04-03T00:04:49.623Z,55.6
2017-04-03T00:05:51.441Z,55.6
2017-04-03T00:06:53.633Z,55.6
2017-04-03T00:07:55.455Z,55.6
2017-04-03T00:08:57.265Z,55.6
2017-04-03T00:09:59.086Z,55.7
2017-04-03T00:11:00.889Z,55.6
2017-04-03T00:12:02.712Z,55.6
2017-04-03T00:13:04.512Z,55.6
2017-04-03T00:14:06.322Z,55.5
2017-04-03T00:15:08.148Z,55.6
2017-04-03T00:16:09.953Z,55.5
2017-04-03T00:17:11.817Z,55.6
2017-04-03T00:18:13.630Z,55.6
2017-04-03T00:19:15.446Z,55.6
2017-04-03T00:20:17.618Z,55.6
2017-04-03T00:21:19.427Z,55.6
2017-04-03T00:22:21.584Z,55.6
2017-04-03T00:23:23.395Z,55.7
2017-04-03T00:24:25.238Z,55.6
2017-04-03T00:25:27.050Z,55.6
2017-04-03T00:26:28.874Z,55.6
2017-04-03T00:27:30.693Z,55.6
2017-04-03T00:28:32.846Z,55.5
2017-04-03T00:29:34.671Z,55.6
2017-04-03T00:30:36.490Z,55.6
2017-04-03T00:31:38.304Z,55.6
2017-04-03T00:32:40.127Z,55.7
2017-04-03T00:33:42.007Z,55.7
2017-04-03T00:34:43.901Z,55.7
2017-04-03T00:35:45.710Z,55.6
2017-04-03T00:36:47.529Z,55.6
2017-04-03T00:37:49.341Z,55.7
2017-04-03T00:38:51.151Z,55.6
2017-04-03T00:39:53.328Z,55.5
2017-04-03T00:40:55.142Z,55.6
2017-04-03T00:41:56.962Z,55.6
2017-04-03T00:42:58.788Z,55.6
2017-04-03T00:44:00.621Z,55.7
2017-04-03T00:45:02.766Z,55.7
2017-04-03T00:46:04.591Z,55.6
2017-04-03T00:47:06.742Z,55.6
2017-04-03T00:48:08.562Z,55.6
2017-04-03T00:49:10.381Z,55.7
2017-04-03T00:50:12.872Z,55.8
2017-04-03T00:51:14.680Z,55.8
2017-04-03T00:52:16.498Z,55.9
2017-04-03T00:53:18.660Z,55.8
2017-04-03T00:54:20.470Z,55.8
2017-04-03T00:55:22.287Z,55.8
2017-04-03T00:56:24.105Z,55.8
2017-04-03T00:57:25.913Z,55.7
2017-04-03T00:58:27.751Z,55.8
2017-04-03T00:59:29.556Z,55.8
2017-04-03T01:00:31.382Z,55.9
2017-04-03T01:01:33.187Z,55.9
2017-04-03T01:02:35.026Z,55.9
2017-04-03T01:03:36.842Z,55.9
2017-04-03T01:04:38.653Z,55.9
2017-04-03T01:05:40.471Z,56
2017-04-03T01:06:42.285Z,55.9
2017-04-03T01:07:44.104Z,56
2017-04-03T01:08:45.927Z,56
2017-04-03T01:09:47.740Z,56.1
2017-04-03T01:10:49.564Z,56.1
2017-04-03T01:11:51.385Z,56.1
2017-04-03T01:12:53.209Z,56.1
2017-04-03T01:13:55.018Z,56
2017-04-03T01:14:56.845Z,56
2017-04-03T01:15:59.020Z,56
2017-04-03T01:17:00.836Z,56
2017-04-03T01:18:02.663Z,55.8
2017-04-03T01:19:04.481Z,55.7
2017-04-03T01:20:06.290Z,55.8
2017-04-03T01:21:08.116Z,55.8
2017-04-03T01:22:09.929Z,55.8
2017-04-03T01:23:11.750Z,55.8
2017-04-03T01:25:17.792Z,55.8
2017-04-03T01:26:19.627Z,56
2017-04-03T01:27:53.569Z,56
2017-04-03T01:28:55.391Z,56
2017-04-03T01:29:57.211Z,56
2017-04-03T01:30:59.035Z,56
2017-04-03T01:32:01.198Z,55.9
2017-04-03T01:33:03.017Z,55.9
2017-04-03T01:34:04.841Z,56
2017-04-03T01:35:06.999Z,56
2017-04-03T01:36:08.821Z,55.9
2017-04-03T01:37:10.640Z,56
2017-04-03T01:38:12.460Z,56.1
2017-04-03T01:39:14.280Z,56.1
2017-04-03T01:40:16.102Z,56.1
2017-04-03T01:41:18.259Z,56.1
2017-04-03T01:42:20.080Z,56.1
2017-04-03T01:43:21.898Z,56.1
2017-04-03T01:44:23.727Z,56.2
2017-04-03T01:45:25.551Z,56.2
2017-04-03T01:46:27.374Z,56.2
2017-04-03T01:47:29.198Z,56.2
2017-04-03T01:48:31.032Z,56.2
2017-04-03T01:49:33.205Z,56.2
2017-04-03T01:50:35.031Z,56.1
2017-04-03T01:51:36.852Z,56
2017-04-03T01:52:38.675Z,56.1
2017-04-03T01:53:40.497Z,56.2
2017-04-03T01:54:42.320Z,56.2
2017-04-03T01:55:44.182Z,56.1
2017-04-03T01:56:45.999Z,56.1
2017-04-03T01:57:47.826Z,56.1
2017-04-03T01:58:49.647Z,56
2017-04-03T01:59:51.460Z,56
2017-04-03T02:00:53.641Z,56
2017-04-03T02:01:55.796Z,56.1
2017-04-03T02:02:57.615Z,56.2
2017-04-03T02:03:59.432Z,56.2
2017-04-03T02:05:01.258Z,56.2
2017-04-03T02:06:03.089Z,56.3
2017-04-03T02:07:04.917Z,56.3
2017-04-03T02:08:06.741Z,56.2
2017-04-03T02:09:08.554Z,56.3
2017-04-03T02:10:10.713Z,56.3
2017-04-03T02:11:12.535Z,56.4
2017-04-03T02:12:14.361Z,56.4
2017-04-03T02:13:16.185Z,56.4
2017-04-03T02:14:18.014Z,56.5
2017-04-03T02:15:19.841Z,56.4
2017-04-03T02:16:21.662Z,56.4
2017-04-03T02:17:23.479Z,56.4
2017-04-03T02:18:25.300Z,56.4
2017-04-03T02:19:27.161Z,56.4
2017-04-03T02:20:28.986Z,56.5
2017-04-03T02:21:30.806Z,56.4
2017-04-03T02:22:32.963Z,56.4
2017-04-03T02:23:34.782Z,56.4
2017-04-03T02:24:36.943Z,56.4
2017-04-03T02:25:38.768Z,56.5
2017-04-03T02:26:40.596Z,56.6
2017-04-03T02:27:42.418Z,56.6
2017-04-03T02:28:44.238Z,56.6
2017-04-03T02:29:46.423Z,56.6
2017-04-03T02:30:48.252Z,56.6
2017-04-03T02:31:50.073Z,56.5
2017-04-03T02:32:51.890Z,56.5
2017-04-03T02:33:53.718Z,56.5
2017-04-03T02:34:55.888Z,56.5
2017-04-03T02:35:57.718Z,56.5
2017-04-03T02:36:59.545Z,56.4
2017-04-03T02:38:01.367Z,56.5
2017-04-03T02:39:03.529Z,56.4
2017-04-03T02:40:05.361Z,56.4
2017-04-03T02:41:07.527Z,56.4
2017-04-03T02:42:09.343Z,56.3
2017-04-03T02:43:11.164Z,56.4
2017-04-03T02:44:12.986Z,56.3
2017-04-03T02:45:14.809Z,56.4
2017-04-03T02:46:16.634Z,56.4
2017-04-03T02:47:18.459Z,56.5
2017-04-03T02:48:20.617Z,56.6
2017-04-03T02:49:22.448Z,56.5
2017-04-03T02:50:24.266Z,56.5
2017-04-03T02:51:26.429Z,56.6
2017-04-03T02:52:28.254Z,56.5
2017-04-03T02:53:30.075Z,56.5
2017-04-03T02:54:31.897Z,56.7
2017-04-03T02:55:33.738Z,56.5
2017-04-03T02:56:35.561Z,56.6
2017-04-03T02:57:37.381Z,56.7
2017-04-03T02:58:39.205Z,56.7
2017-04-03T02:59:41.022Z,56.7
2017-04-03T03:00:42.842Z,56.7
2017-04-03T03:01:44.676Z,56.7
2017-04-03T03:02:46.500Z,56.6
2017-04-03T03:03:48.325Z,56.5
2017-04-03T03:04:50.154Z,56.5
2017-04-03T03:05:51.975Z,56.7
2017-04-03T03:06:54.147Z,56.8
2017-04-03T03:07:55.986Z,56.8
2017-04-03T03:08:57.813Z,56.8
2017-04-03T03:09:59.631Z,56.8
2017-04-03T03:11:01.790Z,56.8
2017-04-03T03:12:03.965Z,56.8
2017-04-03T03:13:05.787Z,56.8
2017-04-03T03:14:07.615Z,56.8
2017-04-03T03:15:09.434Z,56.8
2017-04-03T03:16:11.606Z,56.9
2017-04-03T03:17:13.430Z,56.9
2017-04-03T03:18:15.255Z,56.8
2017-04-03T03:19:17.078Z,56.8
2017-04-03T03:20:18.901Z,56.8
2017-04-03T03:21:20.733Z,56.7
2017-04-03T03:22:22.559Z,56.7
2017-04-03T03:23:24.374Z,56.7
2017-04-03T03:24:26.199Z,56.8
2017-04-03T03:25:28.018Z,56.8
2017-04-03T03:26:29.849Z,56.7
2017-04-03T03:27:31.671Z,56.8
2017-04-03T03:28:33.501Z,56.7
2017-04-03T03:29:35.316Z,56.7
2017-04-03T03:30:37.146Z,56.7
2017-04-03T03:31:39.006Z,56.7
2017-04-03T03:32:40.837Z,56.8
2017-04-03T03:33:42.659Z,56.9
2017-04-03T03:34:44.484Z,56.8
2017-04-03T03:35:46.312Z,56.8
2017-04-03T03:36:48.132Z,56.8
2017-04-03T03:37:50.298Z,56.8
2017-04-03T03:38:52.456Z,56.8
2017-04-03T03:39:54.278Z,56.8
2017-04-03T03:40:56.102Z,56.8
2017-04-03T03:41:57.923Z,56.8
2017-04-03T03:42:59.749Z,56.8
2017-04-03T03:44:01.581Z,56.8
2017-04-03T03:45:03.400Z,56.8
2017-04-03T03:46:05.575Z,56.8
2017-04-03T03:47:07.401Z,56.8
2017-04-03T03:48:09.228Z,56.8
2017-04-03T03:49:11.044Z,56.7
2017-04-03T03:50:13.204Z,56.7
2017-04-03T03:51:15.023Z,56.8
2017-04-03T03:52:16.857Z,56.8
2017-04-03T03:53:18.694Z,56.8
2017-04-03T03:54:20.519Z,56.9
2017-04-03T03:55:22.347Z,56.8
2017-04-03T03:56:24.161Z,56.9
2017-04-03T03:57:25.984Z,56.9
2017-04-03T03:58:27.816Z,57.1
2017-04-03T03:59:29.647Z,57
2017-04-03T04:00:31.471Z,57.1
2017-04-03T04:01:33.330Z,57
2017-04-03T04:02:35.164Z,56.9
2017-04-03T04:03:36.990Z,56.9
2017-04-03T04:04:38.813Z,56.9
2017-04-03T04:05:40.977Z,56.8
2017-04-03T04:06:42.796Z,56.8
2017-04-03T04:07:44.629Z,56.9
2017-04-03T04:08:46.802Z,56.9
2017-04-03T04:09:48.965Z,57
2017-04-03T04:10:51.125Z,57.1
2017-04-03T04:11:52.950Z,57
2017-04-03T04:12:54.767Z,57
2017-04-03T04:13:56.594Z,57
2017-04-03T04:14:58.423Z,57
2017-04-03T04:16:00.253Z,57.1
2017-04-03T04:17:02.074Z,57.1
2017-04-03T04:18:03.894Z,57.1
2017-04-03T04:19:05.728Z,57
2017-04-03T04:20:07.552Z,57.1
2017-04-03T04:21:09.375Z,57
2017-04-03T04:22:11.195Z,56.9
2017-04-03T04:23:13.019Z,56.9
2017-04-03T04:24:14.854Z,56.9
2017-04-03T04:25:16.679Z,57
2017-04-03T04:26:18.498Z,56.9
2017-04-03T04:27:20.332Z,57
2017-04-03T04:28:22.490Z,57
2017-04-03T04:29:24.317Z,57
2017-04-03T04:30:26.480Z,57
2017-04-03T04:31:28.305Z,57.1
2017-04-03T04:32:30.135Z,57.1
2017-04-03T04:33:31.959Z,57.1
2017-04-03T04:34:33.786Z,57
2017-04-03T04:35:35.654Z,57
2017-04-03T04:36:37.472Z,57.2
2017-04-03T04:37:39.293Z,56.9
2017-04-03T04:38:41.113Z,56.9
2017-04-03T04:39:42.940Z,57.1
2017-04-03T04:40:44.771Z,57
2017-04-03T04:41:46.591Z,57
2017-04-03T04:42:48.416Z,57
2017-04-03T04:43:50.576Z,57
2017-04-03T04:44:52.762Z,57.1
2017-04-03T04:45:54.582Z,57.1
2017-04-03T04:46:56.414Z,57.1
2017-04-03T04:47:58.580Z,57.1
2017-04-03T04:49:00.412Z,57.1
2017-04-03T04:50:02.234Z,57
2017-04-03T04:51:04.059Z,57.1
2017-04-03T04:52:05.890Z,57.2
2017-04-03T04:53:07.707Z,57.1
2017-04-03T04:54:09.889Z,57.2
2017-04-03T04:55:11.711Z,57.1
2017-04-03T04:56:13.881Z,57.2
2017-04-03T04:57:15.708Z,57
2017-04-03T04:58:17.532Z,57.1
2017-04-03T04:59:19.347Z,57.1
2017-04-03T05:00:21.184Z,57.2
2017-04-03T05:01:23.007Z,57.2
2017-04-03T05:02:25.172Z,57.2
2017-04-03T05:03:26.990Z,57.2
2017-04-03T05:04:29.152Z,57.3
2017-04-03T05:05:30.973Z,57.3
2017-04-03T05:06:32.806Z,57.2
2017-04-03T05:07:34.631Z,57.2
2017-04-03T05:08:36.452Z,57.2
2017-04-03T05:09:38.637Z,57.2
2017-04-03T05:10:40.809Z,57.3
2017-04-03T05:11:42.642Z,57.4
2017-04-03T05:12:44.809Z,57.3
2017-04-03T05:13:46.641Z,57.4
2017-04-03T05:14:48.819Z,57.4
2017-04-03T05:15:50.645Z,57.3
2017-04-03T05:16:52.810Z,57.4
2017-04-03T05:17:54.630Z,57.4
2017-04-03T05:18:56.458Z,57.4
2017-04-03T05:19:58.283Z,57.3
2017-04-03T05:21:00.474Z,57.3
2017-04-03T05:22:02.630Z,57.3
2017-04-03T05:23:04.458Z,57.3
2017-04-03T05:24:06.282Z,57.5
2017-04-03T05:25:08.110Z,57.4
2017-04-03T05:26:09.935Z,57.4
2017-04-03T05:27:11.754Z,57.3
2017-04-03T05:28:13.585Z,57.3
2017-04-03T05:29:15.411Z,57.4
2017-04-03T05:30:17.238Z,57.4
2017-04-03T05:31:19.066Z,57.4
2017-04-03T05:32:20.946Z,57.4
2017-04-03T05:33:22.767Z,57.5
2017-04-03T05:34:24.927Z,57.5
2017-04-03T05:35:26.745Z,57.6
2017-04-03T05:36:28.574Z,57.5
2017-04-03T05:37:30.396Z,57.4
2017-04-03T05:38:32.607Z,57.3
2017-04-03T05:39:34.427Z,57.3
2017-04-03T05:40:36.254Z,57.2
2017-04-03T05:41:38.080Z,57.3
2017-04-03T05:42:39.903Z,57.3
2017-04-03T05:43:42.066Z,57.4
2017-04-03T05:44:43.899Z,57.3
2017-04-03T05:45:45.729Z,57.2
2017-04-03T05:46:47.556Z,57.2
2017-04-03T05:47:49.388Z,57.2
2017-04-03T05:48:51.206Z,57.2
2017-04-03T05:49:53.025Z,57.4
2017-04-03T05:50:54.857Z,57.4
2017-04-03T05:51:56.677Z,57.5
2017-04-03T05:52:58.503Z,57.5
2017-04-03T05:54:00.327Z,57.6
2017-04-03T05:55:02.489Z,57.5
2017-04-03T05:56:04.326Z,57.4
2017-04-03T05:57:06.146Z,57.4
2017-04-03T05:58:07.977Z,57.4
2017-04-03T05:59:09.801Z,57.4
2017-04-03T06:00:11.975Z,57.5
2017-04-03T06:01:13.789Z,57.6
2017-04-03T06:02:15.619Z,57.5
2017-04-03T06:03:17.785Z,57.6
2017-04-03T06:04:19.953Z,57.5
2017-04-03T06:05:21.784Z,57.5
2017-04-03T06:06:23.606Z,57.5
2017-04-03T06:07:25.437Z,57.5
2017-04-03T06:08:27.263Z,57.5
2017-04-03T06:09:29.092Z,57.6
2017-04-03T06:10:31.256Z,57.6
2017-04-03T06:11:33.091Z,57.5
2017-04-03T06:12:34.907Z,57.4
2017-04-03T06:13:36.739Z,57.4
2017-04-03T06:14:38.561Z,57.5
2017-04-03T06:15:40.379Z,57.4
2017-04-03T06:16:42.210Z,57.5
2017-04-03T06:17:44.037Z,57.4
2017-04-03T06:18:45.867Z,57.5
2017-04-03T06:19:47.690Z,57.4
2017-04-03T06:20:49.861Z,57.3
2017-04-03T06:21:51.700Z,57.2
2017-04-03T06:22:53.898Z,57.2
2017-04-03T06:23:55.726Z,57.3
2017-04-03T06:24:57.886Z,57.3
2017-04-03T06:26:00.109Z,57.4
2017-04-03T06:27:01.932Z,57.4
2017-04-03T06:28:03.771Z,57.4
2017-04-03T06:29:05.597Z,57.4
2017-04-03T06:30:07.418Z,57.4
2017-04-03T06:31:09.245Z,57.5
2017-04-03T06:32:11.404Z,57.5
2017-04-03T06:33:13.234Z,57.5
2017-04-03T06:34:15.063Z,57.6
2017-04-03T06:35:16.897Z,57.6
2017-04-03T06:36:18.723Z,57.5
2017-04-03T06:37:20.549Z,57.6
2017-04-03T06:38:22.371Z,57.6
2017-04-03T06:39:24.196Z,57.6
2017-04-03T06:40:26.013Z,57.5
2017-04-03T06:41:27.883Z,57.4
2017-04-03T06:42:29.711Z,57.4
2017-04-03T06:43:31.544Z,57.4
2017-04-03T06:44:33.712Z,57.4
2017-04-03T06:45:35.533Z,57.4
2017-04-03T06:46:37.362Z,57.5
2017-04-03T06:47:39.196Z,57.4
2017-04-03T06:48:41.025Z,57.3
2017-04-03T06:49:42.846Z,57.3
2017-04-03T06:50:44.667Z,57.5
2017-04-03T06:51:46.493Z,57.4
2017-04-03T06:52:48.320Z,57.3
2017-04-03T06:53:50.165Z,57.2
2017-04-03T06:54:52.032Z,57.2
2017-04-03T06:55:54.196Z,57.3
2017-04-03T06:56:56.030Z,57.1
2017-04-03T06:57:57.852Z,57.2
2017-04-03T06:59:00.016Z,57.2
2017-04-03T07:00:01.847Z,57.2
2017-04-03T07:01:04.369Z,57.2
2017-04-03T07:02:06.195Z,57.2
2017-04-03T07:03:08.027Z,57.4
2017-04-03T07:04:09.855Z,57.3
2017-04-03T07:05:11.690Z,57.4
2017-04-03T07:06:13.519Z,57.3
2017-04-03T07:07:15.690Z,57.3
2017-04-03T07:08:17.523Z,57.4
2017-04-03T07:09:19.355Z,57.4
2017-04-03T07:10:21.178Z,57.4
2017-04-03T07:11:22.999Z,57.3
2017-04-03T07:12:24.821Z,57.2
2017-04-03T07:13:26.657Z,57.1
2017-04-03T07:14:28.851Z,57.2
2017-04-03T07:15:30.685Z,57.2
2017-04-03T07:16:32.513Z,57.2
2017-04-03T07:17:34.335Z,57.3
2017-04-03T07:18:36.166Z,57.2
2017-04-03T07:19:38.673Z,57.2
2017-04-03T07:20:40.839Z,57.2
2017-04-03T07:21:42.659Z,57.1
2017-04-03T07:22:44.493Z,57.1
2017-04-03T07:23:46.315Z,57.1
2017-04-03T07:24:48.141Z,57.2
2017-04-03T07:25:49.969Z,57.2
2017-04-03T07:26:51.796Z,57
2017-04-03T07:27:53.983Z,57.1
2017-04-03T07:28:55.815Z,57
2017-04-03T07:29:57.644Z,57.1
2017-04-03T07:30:59.464Z,57.2
2017-04-03T07:32:01.299Z,57.1
2017-04-03T07:33:03.125Z,57.2
2017-04-03T07:34:04.959Z,57.2
2017-04-03T07:35:06.784Z,57.2
2017-04-03T07:36:08.604Z,57.2
2017-04-03T07:37:10.429Z,57.2
2017-04-03T07:38:12.257Z,57.2
2017-04-03T07:39:14.084Z,57.1
2017-04-03T07:40:15.908Z,57.2
2017-04-03T07:41:18.081Z,57.2
2017-04-03T07:42:19.911Z,57.1
2017-04-03T07:43:22.072Z,57.1
2017-04-03T07:44:23.896Z,57.1
2017-04-03T07:45:25.718Z,57.1
2017-04-03T07:46:27.556Z,57.1
2017-04-03T07:47:29.416Z,57
2017-04-03T07:48:31.246Z,56.9
2017-04-03T07:49:33.474Z,57
2017-04-03T07:50:35.316Z,57
2017-04-03T07:51:37.219Z,57
2017-04-03T07:52:39.073Z,57
2017-04-03T07:53:40.945Z,56.9
2017-04-03T07:54:43.138Z,57
2017-04-03T07:55:44.966Z,56.9
2017-04-03T07:56:46.799Z,56.9
2017-04-03T07:57:48.633Z,56.8
2017-04-03T07:58:50.512Z,56.7
2017-04-03T07:59:52.351Z,56.7
2017-04-03T08:00:54.204Z,56.7
2017-04-03T08:01:56.418Z,56.9
2017-04-03T08:02:58.250Z,56.9
2017-04-03T08:04:00.092Z,56.8
2017-04-03T08:05:01.969Z,56.8
2017-04-03T08:06:04.146Z,56.8
2017-04-03T08:07:06.338Z,56.7
2017-04-03T08:08:08.162Z,56.7
2017-04-03T08:09:10.115Z,56.6
2017-04-03T08:10:12.291Z,56.5
2017-04-03T08:11:14.207Z,56.6
2017-04-03T08:12:16.035Z,56.6
2017-04-03T08:13:17.863Z,56.6
2017-04-03T08:14:19.694Z,56.6
2017-04-03T08:15:21.530Z,56.6
2017-04-03T08:16:23.375Z,56.5
2017-04-03T08:17:25.277Z,56.4
2017-04-03T08:18:27.103Z,56.5
2017-04-03T08:19:28.928Z,56.4
2017-04-03T08:20:30.772Z,56.4
2017-04-03T08:21:32.776Z,56.2
2017-04-03T08:22:34.600Z,56.3
2017-04-03T08:23:36.769Z,56.4
2017-04-03T08:24:38.608Z,56.4
2017-04-03T08:25:40.595Z,56.5
2017-04-03T08:26:42.422Z,56.6
2017-04-03T08:27:44.251Z,56.5
2017-04-03T08:28:46.085Z,56.6
2017-04-03T08:29:48.263Z,56.7
2017-04-03T08:30:50.092Z,56.7
2017-04-03T08:31:51.915Z,56.7
2017-04-03T08:32:53.757Z,56.7
2017-04-03T08:33:55.590Z,56.7
2017-04-03T08:34:57.454Z,56.6
2017-04-03T08:35:59.300Z,56.7
2017-04-03T08:37:01.133Z,56.6
2017-04-03T08:38:02.958Z,56.6
2017-04-03T08:39:04.784Z,56.4
2017-04-03T08:40:06.794Z,56.4
2017-04-03T08:41:08.615Z,56.4
2017-04-03T08:42:10.452Z,56.4
2017-04-03T08:43:12.279Z,56.4
2017-04-03T08:44:14.305Z,56.4
2017-04-03T08:45:16.123Z,56.4
2017-04-03T08:46:18.306Z,56.4
2017-04-03T08:47:20.132Z,56.5
2017-04-03T08:48:22.143Z,56.4
2017-04-03T08:49:23.975Z,56.4
2017-04-03T08:50:25.804Z,56.5
2017-04-03T08:51:27.634Z,56.4
2017-04-03T08:52:29.469Z,56.3
2017-04-03T08:53:31.409Z,56.4
2017-04-03T08:54:33.243Z,56.4
2017-04-03T08:55:35.072Z,56.4
2017-04-03T08:56:36.899Z,56.4
2017-04-03T08:57:38.734Z,56.3
2017-04-03T08:58:40.561Z,56.3
2017-04-03T08:59:42.671Z,56.4
2017-04-03T09:00:44.508Z,55.7
2017-04-03T09:01:46.340Z,55.9
2017-04-03T09:02:48.177Z,55.8
2017-04-03T09:03:50.013Z,55.5
2017-04-03T09:04:51.844Z,55.8
2017-04-03T09:05:54.014Z,55.8
2017-04-03T09:06:55.843Z,55.7
2017-04-03T09:07:57.670Z,55.6
2017-04-03T09:08:59.488Z,55.8
2017-04-03T09:10:01.327Z,55.8
2017-04-03T09:11:03.149Z,55.8
2017-04-03T09:12:04.973Z,55.5
2017-04-03T09:13:06.801Z,55.7
2017-04-03T09:14:08.626Z,55.2
2017-04-03T09:15:10.450Z,55.3
2017-04-03T09:16:12.285Z,55.1
2017-04-03T09:17:14.117Z,55.5
2017-04-03T09:18:15.984Z,55.1
2017-04-03T09:19:17.818Z,55.2
2017-04-03T09:20:19.642Z,55.2
2017-04-03T09:21:21.478Z,55.5
2017-04-03T09:22:23.303Z,55.6
2017-04-03T09:23:25.132Z,55.2
2017-04-03T09:24:26.957Z,55.3
2017-04-03T09:25:29.121Z,55.6
2017-04-03T09:26:30.943Z,55.4
2017-04-03T09:27:32.817Z,55.1
2017-04-03T09:28:34.644Z,55.1
2017-04-03T09:29:36.474Z,54.9
2017-04-03T09:30:38.298Z,54.8
2017-04-03T09:31:40.129Z,54.8
2017-04-03T09:32:41.953Z,54.9
2017-04-03T09:33:44.002Z,54.9
2017-04-03T09:34:45.958Z,54.9
2017-04-03T09:35:47.793Z,54.8
2017-04-03T09:36:49.614Z,54.7
2017-04-03T09:37:51.593Z,54.7
2017-04-03T09:38:53.426Z,54.7
2017-04-03T09:39:55.253Z,54.6
2017-04-03T09:40:57.425Z,54.6
2017-04-03T09:41:59.496Z,54.6
2017-04-03T09:43:01.327Z,54.6
2017-04-03T09:44:03.164Z,54.6
2017-04-03T09:45:05.003Z,54.6
2017-04-03T09:46:07.175Z,54.5
2017-04-03T09:47:09.013Z,54.5
2017-04-03T09:48:10.850Z,54.5
2017-04-03T09:49:13.291Z,54.4
2017-04-03T09:50:15.123Z,54.4
2017-04-03T09:51:16.954Z,54.4
2017-04-03T09:52:18.896Z,54.4
2017-04-03T09:53:20.732Z,54.4
2017-04-03T09:54:22.966Z,54.4
2017-04-03T09:55:24.809Z,54.3
2017-04-03T09:56:26.681Z,54.3
2017-04-03T09:57:29.186Z,54.1
2017-04-03T09:58:31.019Z,54.1
2017-04-03T09:59:32.847Z,54.1
2017-04-03T10:00:35.030Z,54.1
2017-04-03T10:01:37.545Z,54.2
2017-04-03T10:02:39.381Z,54.1
2017-04-03T10:03:41.203Z,54.1
2017-04-03T10:04:43.043Z,54.1
2017-04-03T10:05:45.623Z,54
2017-04-03T10:06:47.459Z,54
2017-04-03T10:07:49.286Z,54.1
2017-04-03T10:08:51.142Z,54
2017-04-03T10:09:52.966Z,54
2017-04-03T10:10:55.224Z,54.1
2017-04-03T10:11:57.068Z,54.3
2017-04-03T10:12:58.889Z,54.2
2017-04-03T10:14:00.730Z,54.3
2017-04-03T10:15:02.719Z,54.1
2017-04-03T10:16:04.543Z,54.3
2017-04-03T10:17:06.369Z,54.4
2017-04-03T10:18:08.202Z,54.4
2017-04-03T10:19:10.375Z,54.4
2017-04-03T10:20:12.206Z,54.8
2017-04-03T10:21:14.038Z,54.8
2017-04-03T10:22:15.910Z,54.8
2017-04-03T10:23:17.741Z,54.6
2017-04-03T10:24:19.578Z,54.6
2017-04-03T10:25:21.402Z,54.5
2017-04-03T10:26:23.232Z,54.8
2017-04-03T10:27:25.064Z,54.6
2017-04-03T10:28:27.205Z,54.6
2017-04-03T10:29:29.033Z,54.8
2017-04-03T10:30:30.859Z,54.6
2017-04-03T10:31:32.734Z,54.5
2017-04-03T10:32:34.566Z,54.5
2017-04-03T10:33:36.409Z,54.5
2017-04-03T10:34:38.237Z,54.4
2017-04-03T10:35:40.067Z,54.4
2017-04-03T10:36:41.901Z,54.5
2017-04-03T10:37:43.731Z,54.5
2017-04-03T10:38:45.564Z,54.4
2017-04-03T10:39:47.731Z,54.8
2017-04-03T10:40:50.016Z,54.5
2017-04-03T10:41:51.917Z,54.5
2017-04-03T10:42:54.404Z,54.8
2017-04-03T10:43:56.287Z,54.9
2017-04-03T10:44:58.112Z,54.9
2017-04-03T10:45:59.966Z,54.9
2017-04-03T10:47:02.402Z,54.7
2017-04-03T10:48:04.237Z,54.5
2017-04-03T10:49:06.061Z,55.1
2017-04-03T10:50:07.902Z,54.7
2017-04-03T10:51:09.730Z,54.8
2017-04-03T10:52:11.558Z,55
2017-04-03T10:53:13.390Z,54.8
2017-04-03T10:54:15.214Z,55.1
2017-04-03T10:55:17.046Z,54.6
2017-04-03T10:56:18.868Z,54.8
2017-04-03T10:57:20.700Z,54.5
2017-04-03T10:58:22.546Z,54.6
2017-04-03T10:59:24.370Z,54.8
2017-04-03T11:00:26.206Z,54.7
2017-04-03T11:01:28.035Z,54.9
2017-04-03T11:02:30.309Z,54.6
2017-04-03T11:03:32.141Z,54.9
2017-04-03T11:04:34.013Z,54.4
2017-04-03T11:05:35.845Z,54.7
2017-04-03T11:06:37.670Z,54.5
2017-04-03T11:07:39.531Z,54.5
2017-04-03T11:08:41.360Z,54.7
2017-04-03T11:09:43.188Z,54.5
2017-04-03T11:10:45.014Z,54.4
2017-04-03T11:11:46.839Z,54.5
2017-04-03T11:12:48.665Z,54.7
2017-04-03T11:13:50.499Z,54.8
2017-04-03T11:14:52.664Z,54.4
2017-04-03T11:15:55.260Z,54.5
2017-04-03T11:16:57.085Z,54.4
2017-04-03T11:17:58.917Z,54.4
2017-04-03T11:19:00.747Z,54.5
2017-04-03T11:20:02.923Z,54.3
2017-04-03T11:21:04.757Z,54.4
2017-04-03T11:22:06.594Z,54.3
2017-04-03T11:23:08.762Z,54.3
2017-04-03T11:24:10.939Z,54.5
2017-04-03T11:25:13.145Z,54.3
2017-04-03T11:26:14.968Z,54.1
2017-04-03T11:27:16.803Z,54.3
2017-04-03T11:28:18.632Z,54.2
2017-04-03T11:29:20.817Z,54.1
2017-04-03T11:30:22.639Z,54.1
2017-04-03T11:31:24.483Z,54
2017-04-03T11:32:26.322Z,54.1
2017-04-03T11:33:28.149Z,54.1
2017-04-03T11:34:29.978Z,54.1
2017-04-03T11:35:31.855Z,54.1
2017-04-03T11:36:34.023Z,54.1
2017-04-03T11:37:36.269Z,54
2017-04-03T11:38:38.162Z,54
2017-04-03T11:39:39.995Z,53.9
2017-04-03T11:40:41.828Z,53.9
2017-04-03T11:41:43.659Z,53.8
2017-04-03T11:42:45.485Z,53.8
2017-04-03T11:43:47.337Z,53.7
2017-04-03T11:44:49.163Z,53.7
2017-04-03T11:45:51.371Z,53.6
2017-04-03T11:46:53.202Z,53.6
2017-04-03T11:47:55.038Z,53.5
2017-04-03T11:48:56.869Z,53.3
2017-04-03T11:49:59.041Z,53.3
2017-04-03T11:51:01.284Z,53.3
2017-04-03T11:52:03.448Z,53.3
2017-04-03T11:53:05.297Z,53.3
2017-04-03T11:54:07.121Z,53.3
2017-04-03T11:55:08.952Z,53.3
2017-04-03T11:56:10.777Z,53.2
2017-04-03T11:57:12.606Z,53.2
2017-04-03T11:58:14.437Z,53.3
2017-04-03T11:59:16.638Z,53.3
2017-04-03T12:00:18.517Z,53.2
2017-04-03T12:01:20.350Z,53.3
2017-04-03T12:02:22.212Z,53.3
2017-04-03T12:03:24.040Z,53.2
2017-04-03T12:04:26.214Z,53.2
2017-04-03T12:05:28.041Z,53.2
2017-04-03T12:06:29.923Z,53.4
2017-04-03T12:07:31.761Z,53.5
2017-04-03T12:08:34.049Z,53.6
2017-04-03T12:09:35.888Z,53.6
2017-04-03T12:10:37.813Z,53.6
2017-04-03T12:11:39.979Z,53.6
2017-04-03T12:12:41.851Z,53.5
2017-04-03T12:13:43.682Z,53.5
2017-04-03T12:14:45.528Z,53.6
2017-04-03T12:15:47.357Z,53.5
2017-04-03T12:16:49.265Z,53.4
2017-04-03T12:17:51.097Z,53.4
2017-04-03T12:18:52.967Z,53.3
2017-04-03T12:19:55.155Z,53.4
2017-04-03T12:20:57.075Z,53.4
2017-04-03T12:21:58.919Z,53.4
2017-04-03T12:23:00.758Z,53.3
2017-04-03T12:24:02.599Z,53.4
2017-04-03T12:25:04.427Z,53.3
2017-04-03T12:26:06.389Z,53.2
2017-04-03T12:27:08.577Z,53.2
2017-04-03T12:28:10.591Z,53.2
2017-04-03T12:29:12.769Z,53.2
2017-04-03T12:30:15.050Z,53.1
2017-04-03T12:31:16.919Z,53.1
2017-04-03T12:32:18.754Z,53.1
2017-04-03T12:33:20.581Z,53
2017-04-03T12:34:22.411Z,53
2017-04-03T12:35:25.564Z,52.8
2017-04-03T12:36:29.643Z,52.8
2017-04-03T12:37:31.812Z,52.8
2017-04-03T12:38:34.345Z,52.9
2017-04-03T12:39:36.520Z,52.8
2017-04-03T12:40:38.690Z,52.9
2017-04-03T12:41:40.521Z,52.9
2017-04-03T12:42:42.354Z,52.8
2017-04-03T12:43:44.187Z,52.7
2017-04-03T12:44:46.012Z,52.9
2017-04-03T12:45:47.848Z,53.1
2017-04-03T12:46:49.689Z,53.1
2017-04-03T12:52:17.105Z,52
2017-04-03T12:53:18.956Z,51.8
2017-04-03T12:54:25.836Z,51.6
2017-04-03T12:55:28.810Z,51.6
2017-04-03T12:56:31.605Z,51.6
2017-04-03T12:57:34.656Z,51.5
2017-04-03T12:58:51.968Z,51.5
2017-04-03T12:59:54.417Z,51.7
2017-04-03T13:00:57.552Z,51.7
2017-04-03T13:02:00.075Z,51.5
2017-04-03T13:03:02.962Z,51.4
2017-04-03T13:04:06.359Z,51.3
2017-04-03T13:05:08.641Z,51.1
2017-04-03T13:06:10.472Z,50.9
2017-04-03T13:07:14.225Z,50.7
2017-04-03T13:08:16.059Z,50.7
2017-04-03T13:09:18.083Z,50.7
2017-04-03T13:10:19.904Z,50.8
2017-04-03T13:11:21.740Z,50.8
2017-04-03T13:12:23.578Z,50.8
2017-04-03T13:13:25.427Z,50.9
2017-04-03T13:14:27.267Z,50.9
2017-04-03T13:15:29.205Z,50.8
2017-04-03T13:16:31.029Z,50.8
2017-04-03T13:17:32.910Z,50.8
2017-04-03T13:18:34.736Z,50.8
2017-04-03T13:19:36.565Z,50.8
2017-04-03T13:20:38.432Z,50.9
2017-04-03T13:21:40.264Z,51.1
2017-04-03T13:22:42.466Z,51.2
2017-04-03T13:23:44.631Z,51.2
2017-04-03T13:24:46.579Z,51.4
2017-04-03T13:25:48.732Z,51.5
2017-04-03T13:26:50.745Z,51.2
2017-04-03T13:27:52.584Z,51.1
2017-04-03T13:28:54.405Z,50.9
2017-04-03T13:29:56.677Z,50.8
2017-04-03T13:30:58.498Z,50.5
2017-04-03T13:32:00.395Z,50.4
2017-04-03T13:33:02.235Z,50.4
2017-04-03T13:34:04.077Z,50.2
2017-04-03T13:35:05.924Z,50.1
2017-04-03T13:36:07.830Z,50
2017-04-03T13:37:10.023Z,49.7
2017-04-03T13:38:11.912Z,49.4
2017-04-03T13:39:13.744Z,49.3
2017-04-03T13:40:15.777Z,49.1
2017-04-03T13:41:17.608Z,48.8
2017-04-03T13:42:19.464Z,48.6
2017-04-03T13:43:21.643Z,48.4
2017-04-03T13:44:23.577Z,48.2
2017-04-03T13:45:25.416Z,48.2
2017-04-03T13:46:27.271Z,48.1
2017-04-03T13:47:29.105Z,48
2017-04-03T13:48:30.938Z,48.2
2017-04-03T13:49:32.929Z,48.3
2017-04-03T13:50:34.765Z,48.3
2017-04-03T13:51:36.603Z,48.2
2017-04-03T13:52:38.439Z,48.2
2017-04-03T13:53:40.273Z,48
2017-04-03T13:54:42.112Z,47.8